Time;durP1;ratioP1;P1;durP2;ratioP2;P2;SDS_P1;SDS_P2;PMS_P1;PMS_P2;Temp;Humidity;BMP_temperature;BMP_pressure;BME280_temperature;BME280_humidity;BME280_pressure;Samples;Min_cycle;Max_cycle;Signal;HPM_P1;HPM_P2
2022/04/15 08:39:27;;;;;;;;;;;13.10;96.90;;;;;;5091409;28;20363;-54
2022/04/15 08:41:54;;;;;;;10.57;6.50;;;13.10;97.00;;;;;;5058927;28;19921;-53
2022/04/15 08:44:21;;;;;;;11.75;6.68;;;13.30;96.30;;;;;;5067497;28;20072;-53
2022/04/15 08:46:47;;;;;;;10.48;5.90;;;13.40;96.30;;;;;;5070557;28;20060;-56
2022/04/15 08:49:18;;;;;;;9.77;5.68;;;13.60;96.00;;;;;;5069847;28;20074;-57
2022/04/15 08:51:45;;;;;;;9.57;5.82;;;13.70;95.50;;;;;;5070409;28;20442;-53
2022/04/15 08:54:12;;;;;;;10.52;6.22;;;13.80;95.50;;;;;;5070256;28;20037;-55
2022/04/15 08:56:39;;;;;;;9.85;5.25;;;13.90;95.40;;;;;;5069455;28;20580;-55
2022/04/15 08:59:06;;;;;;;8.95;5.35;;;14.00;95.10;;;;;;5070164;28;20051;-55
2022/04/15 09:01:33;;;;;;;9.60;5.60;;;14.10;94.70;;;;;;5070160;28;20087;-53
2022/04/15 09:04:00;;;;;;;9.23;5.35;;;14.20;94.70;;;;;;5070245;28;20044;-55
2022/04/15 09:06:27;;;;;;;7.97;4.85;;;14.40;94.30;;;;;;5070353;28;20033;-56
2022/04/15 09:08:54;;;;;;;9.13;5.03;;;14.60;94.10;;;;;;5069999;28;20072;-54
2022/04/15 09:11:21;;;;;;;9.85;5.40;;;14.60;93.80;;;;;;5069864;28;20052;-54
2022/04/15 09:13:47;;;;;;;11.95;5.18;;;14.80;93.10;;;;;;5069863;28;20048;-56
2022/04/15 09:16:14;;;;;;;9.20;5.57;;;14.80;93.00;;;;;;5069935;28;20045;-54
2022/04/15 09:18:42;;;;;;;8.85;5.30;;;14.80;93.00;;;;;;5068710;28;20047;-55
2022/04/15 09:21:09;;;;;;;12.50;5.75;;;15.00;92.70;;;;;;5069765;28;20478;-52
2022/04/15 09:23:36;;;;;;;7.57;5.30;;;15.10;92.60;;;;;;5069548;28;20041;-56
2022/04/15 09:26:03;;;;;;;10.93;5.65;;;15.20;92.60;;;;;;5051887;28;20132;-56
2022/04/15 09:28:30;;;;;;;8.68;5.05;;;15.10;92.50;;;;;;5069627;28;20322;-55
2022/04/15 09:30:56;;;;;;;9.18;5.57;;;15.20;92.30;;;;;;5069506;28;20045;-50
2022/04/15 09:33:23;;;;;;;8.40;5.00;;;15.30;92.20;;;;;;5069251;28;20045;-51
2022/04/15 09:35:50;;;;;;;9.07;5.15;;;15.40;92.10;;;;;;5069405;28;20052;-55
2022/04/15 09:38:17;;;;;;;8.45;5.57;;;15.50;92.00;;;;;;5072842;28;20080;-53
2022/04/15 09:40:44;;;;;;;9.43;5.22;;;15.50;91.90;;;;;;5069103;28;20041;-53
2022/04/15 09:43:10;;;;;;;9.43;5.32;;;15.50;92.00;;;;;;5069304;28;20127;-56
2022/04/15 09:45:37;;;;;;;10.18;5.45;;;15.50;91.60;;;;;;5072817;28;20045;-55
2022/04/15 09:48:04;;;;;;;7.32;5.20;;;15.60;91.60;;;;;;5069131;28;20071;-51
2022/04/15 09:50:31;;;;;;;10.73;5.47;;;15.70;91.70;;;;;;5059610;28;20053;-56
2022/04/15 09:52:58;;;;;;;10.48;6.00;;;15.80;91.60;;;;;;5055784;28;20076;-54
2022/04/15 09:55:25;;;;;;;11.23;5.10;;;15.80;91.50;;;;;;5061805;28;20048;-55
2022/04/15 09:57:52;;;;;;;8.27;5.10;;;15.90;90.90;;;;;;5055944;28;20112;-58
2022/04/15 10:00:22;;;;;;;10.68;5.18;;;15.90;91.10;;;;;;5055841;28;20045;-55
2022/04/15 10:02:49;;;;;;;8.80;5.25;;;15.90;91.30;;;;;;5055676;28;20106;-57
2022/04/15 10:05:16;;;;;;;10.00;5.68;;;15.90;91.30;;;;;;5055725;28;20041;-56
2022/04/15 10:07:43;;;;;;;8.07;4.85;;;16.00;90.90;;;;;;5055616;28;20468;-56
2022/04/15 10:10:10;;;;;;;9.52;4.82;;;16.10;90.90;;;;;;5059020;28;20043;-55
2022/04/15 10:12:39;;;;;;;10.55;6.22;;;16.10;90.80;;;;;;5055472;28;20072;-56
2022/04/15 10:15:06;;;;;;;8.85;5.50;;;16.20;90.50;;;;;;5055523;28;20041;-55
2022/04/15 10:17:32;;;;;;;9.27;4.72;;;16.30;90.30;;;;;;5055594;28;20073;-53
2022/04/15 10:19:59;;;;;;;11.27;5.47;;;16.30;90.50;;;;;;5055232;28;20045;-56
2022/04/15 10:22:26;;;;;;;28.13;6.00;;;16.40;90.20;;;;;;5055131;28;20033;-50
2022/04/15 10:24:53;;;;;;;10.65;4.88;;;16.40;90.00;;;;;;5037431;28;20041;-52
2022/04/15 10:27:20;;;;;;;9.38;5.05;;;16.40;90.20;;;;;;5055268;28;20522;-56
2022/04/15 10:29:47;;;;;;;8.23;4.80;;;16.50;90.30;;;;;;5055132;28;20480;-56
2022/04/15 10:32:14;;;;;;;18.45;5.50;;;16.50;90.10;;;;;;5059806;28;20068;-55
2022/04/15 10:34:40;;;;;;;10.50;5.57;;;16.70;90.00;;;;;;5018038;28;20079;-55
2022/04/15 10:37:09;;;;;;;23.38;5.93;;;16.70;89.20;;;;;;5048358;28;20453;-56
2022/04/15 10:39:36;;;;;;;8.55;4.65;;;16.70;89.20;;;;;;5055367;28;20041;-51
2022/04/15 10:42:05;;;;;;;10.27;5.05;;;16.70;88.70;;;;;;5061428;28;20456;-54
2022/04/15 10:44:32;;;;;;;9.60;4.97;;;16.70;88.70;;;;;;5048526;28;20041;-54
2022/04/15 10:46:59;;;;;;;24.05;5.88;;;16.70;89.30;;;;;;5048409;28;20072;-57
2022/04/15 10:49:27;;;;;;;7.88;4.68;;;16.60;89.80;;;;;;5058354;28;20036;-57
2022/04/15 10:51:53;;;;;;;6.38;4.43;;;16.50;89.60;;;;;;5048163;28;20048;-56
2022/04/15 10:54:20;;;;;;;8.95;4.85;;;16.50;89.30;;;;;;5054682;28;20418;-56
2022/04/15 10:56:47;;;;;;;7.82;4.13;;;16.50;89.50;;;;;;5054392;28;20045;-58
2022/04/15 11:02:02;;;;;;;8.43;4.75;;;16.80;88.60;;;;;;5053656;28;20049;-54
2022/04/15 11:04:29;;;;;;;7.22;4.07;;;17.00;87.20;;;;;;5056912;28;20124;-55
2022/04/15 11:06:55;;;;;;;9.30;4.65;;;17.00;88.20;;;;;;5036699;28;20391;-56
2022/04/15 11:09:23;;;;;;;9.05;4.57;;;17.00;87.20;;;;;;5057956;28;20032;-56
2022/04/15 11:11:50;;;;;;;8.25;4.05;;;17.10;86.00;;;;;;5054590;28;20049;-56
2022/04/15 11:14:17;;;;;;;7.10;4.00;;;17.20;85.60;;;;;;5037758;28;20127;-56
2022/04/15 11:16:43;;;;;;;8.63;4.03;;;17.30;84.80;;;;;;5054296;28;20060;-55
2022/04/15 11:19:13;;;;;;;6.68;3.50;;;17.40;84.10;;;;;;5054117;28;20079;-57
2022/04/15 11:21:40;;;;;;;6.53;3.50;;;17.50;83.10;;;;;;5056165;28;20395;-57
2022/04/15 11:24:08;;;;;;;7.78;4.03;;;17.40;83.60;;;;;;5056746;28;20040;-54
2022/04/15 11:26:34;;;;;;;6.05;2.50;;;17.40;83.40;;;;;;5052066;28;20100;-54
2022/04/15 11:29:01;;;;;;;4.97;2.78;;;17.50;83.60;;;;;;5052661;28;20036;-54
2022/04/15 11:31:28;;;;;;;6.15;3.00;;;17.60;82.40;;;;;;5053197;28;20041;-52
2022/04/15 11:33:55;;;;;;;4.80;2.95;;;17.70;80.40;;;;;;5053649;28;20115;-53
2022/04/15 11:36:22;;;;;;;5.03;2.55;;;17.70;80.40;;;;;;5053564;28;20045;-54
2022/04/15 11:38:49;;;;;;;4.47;2.03;;;17.70;81.80;;;;;;5052681;28;20072;-56
2022/04/15 11:41:16;;;;;;;9.70;2.55;;;17.90;80.50;;;;;;5054081;28;20055;-56
2022/04/15 11:43:42;;;;;;;4.18;2.05;;;18.10;79.10;;;;;;5052964;28;20068;-53
2022/04/15 11:46:09;;;;;;;4.53;1.90;;;18.30;78.50;;;;;;5053832;28;20043;-55
2022/04/15 11:48:36;;;;;;;11.13;3.15;;;18.40;78.00;;;;;;5053999;28;20077;-55
2022/04/15 11:51:03;;;;;;;5.32;2.20;;;18.50;77.40;;;;;;5053695;28;20059;-52
2022/04/15 11:53:30;;;;;;;4.53;2.55;;;18.60;76.20;;;;;;5055237;28;20045;-55
2022/04/15 11:55:58;;;;;;;4.20;2.20;;;18.50;77.30;;;;;;5053736;28;20063;-55
2022/04/15 11:58:25;;;;;;;4.88;2.40;;;18.40;76.60;;;;;;5053602;28;20037;-53
2022/04/15 12:00:52;;;;;;;5.07;1.88;;;18.40;75.20;;;;;;5053660;28;20427;-54
2022/04/15 12:03:18;;;;;;;4.57;2.00;;;18.30;76.30;;;;;;5058049;28;20047;-49
2022/04/15 12:05:45;;;;;;;5.70;2.10;;;18.30;77.30;;;;;;5046913;28;20033;-56
2022/04/15 12:08:12;;;;;;;3.80;1.70;;;18.30;75.90;;;;;;5053204;28;20506;-52
2022/04/15 12:10:39;;;;;;;5.13;1.70;;;18.30;75.70;;;;;;5053284;28;20037;-55
2022/04/15 12:13:05;;;;;;;5.32;1.60;;;18.50;76.20;;;;;;5052939;28;20115;-57
2022/04/15 12:15:33;;;;;;;6.45;1.63;;;18.50;76.00;;;;;;5053203;28;20045;-56
2022/04/15 12:18:00;;;;;;;4.85;1.80;;;18.60;76.60;;;;;;5053155;28;20131;-54
2022/04/15 12:20:27;;;;;;;3.75;1.73;;;18.80;74.40;;;;;;5053452;28;20115;-51
2022/04/15 12:22:55;;;;;;;4.78;1.90;;;18.70;73.10;;;;;;5058527;28;20069;-53
2022/04/15 12:25:26;;;;;;;4.90;1.58;;;18.60;74.50;;;;;;5053192;28;20483;-57
2022/04/15 12:27:55;;;;;;;3.53;1.80;;;18.50;74.50;;;;;;5057338;28;20403;-56
2022/04/15 12:30:22;;;;;;;3.60;1.65;;;18.60;74.60;;;;;;5053017;28;20045;-57
2022/04/15 12:32:48;;;;;;;4.10;1.83;;;18.70;73.20;;;;;;5053128;28;20037;-57
2022/04/15 12:35:18;;;;;;;4.78;2.00;;;18.80;72.10;;;;;;5056655;28;20057;-54
2022/04/15 12:37:53;;;;;;;4.03;1.70;;;18.90;72.00;;;;;;5046401;28;20462;-51
2022/04/15 12:40:20;;;;;;;4.57;1.90;;;19.00;71.80;;;;;;5054826;28;20055;-56
2022/04/15 12:42:47;;;;;;;4.53;1.80;;;19.00;71.60;;;;;;5053069;28;20037;-55
2022/04/15 12:45:17;;;;;;;5.65;1.90;;;18.90;72.50;;;;;;5054376;28;20681;-56
2022/04/15 12:47:45;;;;;;;4.25;1.67;;;19.00;72.20;;;;;;5053054;28;20040;-55
2022/04/15 12:50:12;;;;;;;4.38;2.08;;;19.00;72.60;;;;;;5052901;28;20063;-54
2022/04/15 12:52:39;;;;;;;4.25;1.60;;;19.10;73.00;;;;;;5053085;28;20044;-55
2022/04/15 12:55:06;;;;;;;3.75;1.60;;;19.10;72.30;;;;;;5053055;28;20037;-56
2022/04/15 12:57:33;;;;;;;4.65;1.75;;;19.10;69.80;;;;;;5056054;28;20049;-50
2022/04/15 12:59:59;;;;;;;4.00;1.80;;;19.20;70.30;;;;;;5035239;28;20099;-51
2022/04/15 13:02:26;;;;;;;4.53;1.50;;;19.10;70.10;;;;;;5052757;28;20041;-56
2022/04/15 13:04:54;;;;;;;5.47;1.92;;;19.10;71.10;;;;;;5035170;28;20120;-56
2022/04/15 13:07:20;;;;;;;4.53;1.90;;;19.10;71.90;;;;;;5052955;28;20047;-53
2022/04/15 13:09:47;;;;;;;5.25;2.00;;;19.10;71.20;;;;;;5046579;28;20064;-56
2022/04/15 13:12:23;;;;;;;5.90;1.48;;;19.20;71.80;;;;;;5043850;28;20419;-54
2022/04/15 13:14:51;;;;;;;4.20;1.50;;;19.20;71.10;;;;;;5052705;28;20045;-52
2022/04/15 13:17:18;;;;;;;3.28;1.60;;;19.20;72.20;;;;;;5052792;28;20400;-51
2022/04/15 13:19:45;;;;;;;5.43;1.77;;;19.30;71.80;;;;;;5052655;28;20121;-55
2022/04/15 13:22:12;;;;;;;4.55;1.80;;;19.30;72.00;;;;;;5056793;28;20041;-52
2022/04/15 13:24:38;;;;;;;4.15;1.65;;;19.30;71.00;;;;;;5054222;28;20069;-57
2022/04/15 13:27:05;;;;;;;3.00;1.60;;;19.40;71.90;;;;;;5056389;28;20041;-56
2022/04/15 13:29:32;;;;;;;3.97;1.67;;;19.40;70.90;;;;;;5056453;28;20045;-55
2022/04/15 13:31:59;;;;;;;2.85;1.55;;;19.50;71.30;;;;;;5056193;28;20500;-53
2022/04/15 13:34:26;;;;;;;2.60;1.67;;;19.60;70.20;;;;;;5056541;28;20519;-57
2022/04/15 13:36:52;;;;;;;3.42;1.70;;;19.70;69.40;;;;;;5050153;28;20371;-52
2022/04/15 13:39:19;;;;;;;4.38;1.92;;;19.70;68.60;;;;;;5051274;28;20106;-55
2022/04/15 13:41:46;;;;;;;4.05;1.50;;;19.70;69.70;;;;;;5055978;28;20084;-54
2022/04/15 13:44:13;;;;;;;4.80;1.75;;;19.80;69.00;;;;;;5055987;28;20064;-55
2022/04/15 13:46:40;;;;;;;4.88;1.90;;;19.90;68.90;;;;;;5057581;28;20073;-55
2022/04/15 13:49:06;;;;;;;4.90;1.67;;;20.00;68.10;;;;;;5055962;28;20569;-52
2022/04/15 13:51:33;;;;;;;4.88;1.70;;;20.00;69.30;;;;;;5055353;28;20045;-54
2022/04/15 13:56:46;;;;;;;3.72;1.60;;;20.00;68.50;;;;;;5057871;28;20041;-57
2022/04/15 13:59:12;;;;;;;3.38;1.65;;;20.00;68.00;;;;;;5055794;28;20120;-58
2022/04/15 14:01:39;;;;;;;5.13;1.50;;;20.00;68.70;;;;;;5055609;28;20048;-57
2022/04/15 14:04:12;;;;;;;4.50;1.60;;;20.00;68.40;;;;;;5056109;28;20047;-57
2022/04/15 14:06:39;;;;;;;2.40;1.30;;;20.00;67.50;;;;;;5055622;28;20487;-55
2022/04/15 14:09:06;;;;;;;2.85;1.35;;;20.00;68.20;;;;;;5055682;28;20065;-53
2022/04/15 14:11:33;;;;;;;5.35;1.75;;;20.10;67.80;;;;;;5055495;28;20041;-52
2022/04/15 14:14:00;;;;;;;4.90;1.73;;;20.20;68.00;;;;;;5056734;28;20120;-54
2022/04/15 14:16:26;;;;;;;3.47;1.30;;;20.30;68.30;;;;;;5055480;28;20044;-53
2022/04/15 14:18:53;;;;;;;3.85;1.33;;;20.30;68.60;;;;;;5060197;28;20069;-56
2022/04/15 14:21:20;;;;;;;4.13;2.30;;;20.40;67.80;;;;;;5056799;28;20047;-53
2022/04/15 14:23:47;;;;;;;5.32;2.45;;;20.40;67.20;;;;;;5055227;28;20460;-57
2022/04/15 14:26:14;;;;;;;4.10;1.67;;;20.50;67.10;;;;;;5054573;28;20055;-57
2022/04/15 14:28:41;;;;;;;4.07;1.63;;;20.50;66.90;;;;;;5061055;28;20051;-53
2022/04/15 14:31:08;;;;;;;4.88;2.47;;;20.50;66.30;;;;;;5055308;28;20467;-50
2022/04/15 14:33:35;;;;;;;4.60;2.15;;;20.60;66.90;;;;;;5057315;28;20041;-54
2022/04/15 14:36:01;;;;;;;6.90;1.80;;;20.60;67.30;;;;;;5054967;28;20040;-56
2022/04/15 14:38:28;;;;;;;6.20;3.08;;;20.60;67.40;;;;;;5041837;28;20049;-56
2022/04/15 14:40:55;;;;;;;5.80;2.58;;;20.50;66.90;;;;;;5054717;28;20403;-54
2022/04/15 14:43:22;;;;;;;4.60;1.90;;;20.50;67.30;;;;;;5052824;28;20127;-52
2022/04/15 14:45:49;;;;;;;4.47;1.63;;;20.50;66.60;;;;;;5048257;28;20048;-53
2022/04/15 14:48:16;;;;;;;7.22;2.65;;;20.40;67.30;;;;;;5054692;28;20054;-54
2022/04/15 14:50:42;;;;;;;6.38;2.05;;;20.40;66.30;;;;;;5059714;28;20037;-54
2022/04/15 14:53:10;;;;;;;4.38;2.83;;;20.30;66.50;;;;;;5036976;28;20480;-58
2022/04/15 14:55:36;;;;;;;9.55;4.78;;;20.20;67.30;;;;;;5054741;28;20421;-57
2022/04/15 14:58:05;;;;;;;10.90;4.80;;;20.20;70.80;;;;;;5054201;28;20071;-51
2022/04/15 15:00:32;;;;;;;7.20;4.45;;;20.10;72.10;;;;;;5054827;28;20091;-56
2022/04/15 15:02:58;;;;;;;8.57;5.45;;;20.10;72.80;;;;;;5054297;28;20095;-56
2022/04/15 15:05:25;;;;;;;5.50;2.88;;;20.10;72.30;;;;;;5036851;28;20095;-54
2022/04/15 15:07:52;;;;;;;13.35;6.55;;;20.10;71.90;;;;;;5037971;28;20045;-56
2022/04/15 15:10:19;;;;;;;8.93;3.05;;;20.10;72.40;;;;;;5036689;28;20563;-58
2022/04/15 15:12:48;;;;;;;6.32;2.97;;;20.10;72.40;;;;;;5054447;28;20425;-56
2022/04/15 15:15:15;;;;;;;13.27;4.60;;;20.00;72.20;;;;;;5053543;28;20037;-56
2022/04/15 15:17:42;;;;;;;7.63;3.75;;;19.90;73.00;;;;;;5055614;28;20064;-57
2022/04/15 15:20:08;;;;;;;7.63;3.20;;;19.90;73.50;;;;;;5054231;28;20049;-55
2022/04/15 15:22:35;;;;;;;9.40;3.33;;;19.80;73.80;;;;;;5057358;28;20364;-55
2022/04/15 15:30:53;;;;;;;27.48;4.60;;;19.80;74.70;;;;;;4987240;28;20050;-55
2022/04/15 15:33:19;;;;;;;9.70;3.55;;;19.80;75.20;;;;;;5022196;28;20135;-58
2022/04/15 15:35:47;;;;;;;7.70;4.00;;;19.90;74.80;;;;;;5055445;28;20476;-55
2022/04/15 15:38:13;;;;;;;8.98;4.45;;;19.90;74.80;;;;;;5053618;28;20041;-54
2022/04/15 15:40:40;;;;;;;11.35;4.68;;;20.00;75.30;;;;;;5058288;28;20048;-55
2022/04/15 15:43:07;;;;;;;8.68;4.40;;;20.00;76.20;;;;;;5036264;28;20089;-53
2022/04/15 15:45:36;;;;;;;9.85;4.47;;;20.00;76.40;;;;;;5035892;28;20044;-57
2022/04/15 15:48:05;;;;;;;8.25;4.13;;;19.90;77.70;;;;;;5055216;28;20040;-57
2022/04/15 15:50:33;;;;;;;8.50;3.88;;;19.90;77.80;;;;;;5053874;28;20042;-56
2022/04/15 15:53:00;;;;;;;6.95;3.70;;;20.00;78.10;;;;;;5053962;28;20060;-55
2022/04/15 15:55:26;;;;;;;10.07;3.80;;;20.10;76.70;;;;;;5054698;28;20041;-55
2022/04/15 15:57:53;;;;;;;8.45;3.67;;;20.20;76.20;;;;;;5053594;28;20063;-56
2022/04/15 16:00:20;;;;;;;6.60;3.63;;;20.20;76.20;;;;;;5053522;28;20049;-55
2022/04/15 16:02:46;;;;;;;8.63;3.40;;;20.30;76.00;;;;;;5053386;28;20048;-56
2022/04/15 16:05:13;;;;;;;7.68;3.47;;;20.30;75.80;;;;;;5053197;28;20045;-51
2022/04/15 16:07:40;;;;;;;6.78;3.28;;;20.30;75.80;;;;;;5047999;28;20124;-54
2022/04/15 16:10:07;;;;;;;6.60;3.20;;;20.30;75.30;;;;;;5049706;28;20033;-53
2022/04/15 16:12:39;;;;;;;8.70;2.97;;;20.30;75.90;;;;;;5047221;28;20045;-57
2022/04/15 16:15:09;;;;;;;6.32;3.00;;;20.30;76.10;;;;;;5048164;28;20041;-55
2022/04/15 16:17:36;;;;;;;5.35;2.75;;;20.40;76.10;;;;;;5050129;28;20033;-54
2022/04/15 16:20:03;;;;;;;8.15;3.00;;;20.50;75.90;;;;;;5052489;28;20514;-60
2022/04/15 16:22:31;;;;;;;6.35;3.33;;;20.60;75.60;;;;;;5051942;28;20049;-57
2022/04/15 16:24:58;;;;;;;8.48;3.78;;;20.60;74.90;;;;;;5034860;28;20372;-55
2022/04/15 16:27:24;;;;;;;7.32;3.63;;;20.60;75.20;;;;;;5050421;28;20501;-57
2022/04/15 16:29:51;;;;;;;7.13;3.67;;;20.60;75.60;;;;;;5052570;28;20045;-56
2022/04/15 16:32:21;;;;;;;10.27;3.38;;;20.60;75.80;;;;;;5050918;28;20044;-56
2022/04/15 16:34:47;;;;;;;7.82;3.38;;;20.60;75.90;;;;;;5050900;28;20494;-56
2022/04/15 16:37:15;;;;;;;6.57;3.15;;;21.00;75.40;;;;;;5052037;28;20439;-55
2022/04/15 16:39:41;;;;;;;7.45;3.40;;;21.50;74.30;;;;;;5055291;28;20048;-58
2022/04/15 16:42:09;;;;;;;6.55;3.63;;;21.90;73.20;;;;;;5050487;28;20045;-56
2022/04/15 16:44:36;;;;;;;9.13;3.47;;;22.00;72.60;;;;;;5048843;28;20044;-57
2022/04/15 16:47:02;;;;;;;5.82;3.25;;;21.90;72.30;;;;;;5049975;28;20036;-56
2022/04/15 16:49:29;;;;;;;7.90;3.40;;;21.90;71.80;;;;;;5051726;28;20071;-54
2022/04/15 16:51:56;;;;;;;6.63;3.28;;;21.90;72.10;;;;;;5049945;28;20048;-58
2022/04/15 16:59:53;;;;;;;5.90;3.35;;;21.90;71.50;;;;;;5046870;28;20037;-56
2022/04/15 17:02:20;;;;;;;7.43;3.75;;;21.60;72.60;;;;;;5055177;28;20388;-57
2022/04/15 17:04:47;;;;;;;7.25;3.78;;;21.20;73.00;;;;;;5056231;28;20090;-55
2022/04/15 17:07:14;;;;;;;10.38;4.10;;;20.80;74.10;;;;;;5054664;28;20037;-58
2022/04/15 17:09:41;;;;;;;7.20;3.47;;;20.60;75.00;;;;;;5060185;28;20067;-55
2022/04/15 17:12:09;;;;;;;7.07;3.40;;;20.30;75.70;;;;;;5060853;28;20048;-55
2022/04/15 17:14:36;;;;;;;6.95;3.75;;;20.20;76.40;;;;;;5056188;28;20052;-58
2022/04/15 17:17:03;;;;;;;6.38;3.47;;;20.00;76.90;;;;;;5055861;28;20437;-55
2022/04/15 17:19:32;;;;;;;9.55;3.78;;;19.80;77.40;;;;;;5055964;28;20051;-55
2022/04/15 17:21:59;;;;;;;5.93;3.25;;;19.70;77.80;;;;;;5034941;28;20117;-55
2022/04/15 17:24:26;;;;;;;7.30;3.35;;;19.60;78.10;;;;;;5054886;28;20451;-57
2022/04/15 17:26:52;;;;;;;7.03;3.90;;;19.50;78.30;;;;;;5055991;28;20041;-51
2022/04/15 17:29:19;;;;;;;7.88;3.70;;;19.40;78.70;;;;;;5055741;28;20048;-55
2022/04/15 17:31:46;;;;;;;6.63;3.90;;;19.30;78.80;;;;;;5055718;28;20040;-54
2022/04/15 17:34:14;;;;;;;7.95;3.55;;;19.30;79.20;;;;;;5055882;28;20037;-53
2022/04/15 17:36:41;;;;;;;6.63;3.22;;;19.20;79.10;;;;;;5055858;28;20120;-57
2022/04/15 17:39:07;;;;;;;6.18;4.00;;;19.20;79.20;;;;;;5053407;28;20054;-55
2022/04/15 17:41:34;;;;;;;8.25;3.25;;;19.20;79.30;;;;;;5052930;28;20035;-56
2022/04/15 17:44:01;;;;;;;6.20;3.33;;;19.20;78.80;;;;;;5055744;28;20439;-55
2022/04/15 17:46:27;;;;;;;9.48;4.00;;;19.10;78.80;;;;;;5055433;28;20071;-58
2022/04/15 17:48:54;;;;;;;6.32;3.22;;;19.10;78.90;;;;;;5055639;28;20033;-54
2022/04/15 17:51:21;;;;;;;8.02;3.00;;;19.00;78.50;;;;;;5055255;28;20573;-54
2022/04/15 17:53:48;;;;;;;10.80;4.70;;;19.00;79.20;;;;;;5052866;28;20041;-54
2022/04/15 17:56:17;;;;;;;9.05;4.82;;;19.00;78.50;;;;;;5055531;28;20111;-52
2022/04/15 17:58:43;;;;;;;7.85;3.95;;;18.90;78.40;;;;;;5048097;28;20040;-54
2022/04/15 18:01:10;;;;;;;8.45;4.72;;;18.90;78.40;;;;;;5054016;28;20103;-51
2022/04/15 18:03:37;;;;;;;9.80;4.60;;;18.80;78.10;;;;;;5049554;28;20045;-57
2022/04/15 18:06:04;;;;;;;7.28;3.25;;;18.80;78.40;;;;;;5052299;28;20037;-54
2022/04/15 18:08:31;;;;;;;22.77;14.27;;;18.70;78.30;;;;;;5050424;28;20047;-56
2022/04/15 18:10:58;;;;;;;10.77;7.50;;;18.70;78.50;;;;;;5049133;28;20459;-53
2022/04/15 18:13:28;;;;;;;7.30;4.00;;;18.60;78.40;;;;;;5033744;28;20045;-55
2022/04/15 18:15:55;;;;;;;8.93;3.40;;;18.60;78.80;;;;;;5055176;28;20041;-55
2022/04/15 18:18:21;;;;;;;6.10;2.67;;;18.50;78.60;;;;;;5055272;28;20033;-51
2022/04/15 18:20:48;;;;;;;6.95;2.58;;;18.40;78.70;;;;;;5054473;28;20077;-52
2022/04/15 18:23:15;;;;;;;6.50;3.10;;;18.40;78.80;;;;;;5055096;28;20120;-54
2022/04/15 18:25:42;;;;;;;8.30;2.70;;;18.30;79.00;;;;;;5055073;28;20048;-55
2022/04/15 18:28:09;;;;;;;12.88;2.53;;;18.20;79.30;;;;;;5054871;28;20045;-50
2022/04/15 18:30:36;;;;;;;8.63;2.97;;;18.10;78.90;;;;;;5052683;28;20090;-57
2022/04/15 18:33:03;;;;;;;6.13;2.80;;;18.10;78.60;;;;;;5054758;28;20483;-57
2022/04/15 18:35:30;;;;;;;6.60;2.63;;;18.00;79.20;;;;;;5047571;28;20123;-50
2022/04/15 18:37:56;;;;;;;5.00;2.70;;;18.00;79.10;;;;;;5036654;28;20457;-55
2022/04/15 18:40:23;;;;;;;6.75;2.60;;;18.00;79.10;;;;;;5052811;28;20049;-57
2022/04/15 18:42:50;;;;;;;7.45;2.78;;;17.90;79.50;;;;;;5053872;28;20115;-56
2022/04/15 18:45:17;;;;;;;15.30;11.23;;;17.90;79.10;;;;;;5054692;28;20051;-56
2022/04/15 18:47:45;;;;;;;9.52;6.72;;;17.80;79.20;;;;;;5052082;28;20446;-57
2022/04/15 18:52:59;;;;;;;7.47;3.35;;;17.70;79.40;;;;;;5050674;28;20045;-57
2022/04/15 18:55:27;;;;;;;6.28;3.15;;;17.60;79.40;;;;;;5054587;28;20491;-56
2022/04/15 18:57:54;;;;;;;8.25;4.28;;;17.50;79.60;;;;;;5054593;28;20095;-52
2022/04/15 19:00:21;;;;;;;8.85;4.10;;;17.40;79.80;;;;;;5036925;28;20072;-51
2022/04/15 19:02:48;;;;;;;5.97;3.10;;;17.40;79.90;;;;;;5054664;28;20135;-56
2022/04/15 19:05:15;;;;;;;5.82;2.90;;;17.30;79.40;;;;;;5053967;28;20033;-58
2022/04/15 19:07:41;;;;;;;6.22;2.97;;;17.20;79.50;;;;;;5053900;28;20037;-57
2022/04/15 19:10:08;;;;;;;4.80;2.60;;;17.10;79.50;;;;;;5054206;28;20455;-56
2022/04/15 19:12:36;;;;;;;6.10;2.97;;;17.10;79.70;;;;;;5052835;28;20124;-55
2022/04/15 19:15:05;;;;;;;8.02;3.65;;;17.00;79.60;;;;;;5050721;28;20061;-57
2022/04/15 19:17:32;;;;;;;6.45;4.70;;;17.00;80.10;;;;;;5054494;28;20051;-56
2022/04/15 19:19:59;;;;;;;4.88;3.63;;;16.90;80.40;;;;;;5048012;28;20075;-53
2022/04/15 19:22:26;;;;;;;6.82;3.35;;;16.80;80.50;;;;;;5047383;28;20087;-57
2022/04/15 19:24:53;;;;;;;7.32;4.45;;;16.70;80.90;;;;;;5054267;28;20075;-52
2022/04/15 19:27:21;;;;;;;5.28;3.60;;;16.70;81.20;;;;;;5054351;28;20045;-57
2022/04/15 19:29:49;;;;;;;7.82;3.40;;;16.60;80.90;;;;;;5042809;28;20080;-54
2022/04/15 19:32:18;;;;;;;8.35;3.97;;;16.60;81.20;;;;;;5030786;28;20508;-54
2022/04/15 19:34:44;;;;;;;6.15;3.67;;;16.60;81.80;;;;;;5052848;28;20077;-53
2022/04/15 19:37:11;;;;;;;5.43;3.60;;;16.50;81.90;;;;;;5035409;28;20184;-57
2022/04/15 19:39:38;;;;;;;7.00;4.60;;;16.50;82.40;;;;;;5055469;28;20512;-56
2022/04/15 19:42:05;;;;;;;5.82;3.50;;;16.40;83.00;;;;;;5058346;28;20064;-54
2022/04/15 19:44:32;;;;;;;7.00;4.43;;;16.40;82.80;;;;;;5053943;28;20416;-52
2022/04/15 19:46:58;;;;;;;10.82;6.97;;;16.30;84.10;;;;;;5053576;28;20045;-53
2022/04/15 19:49:25;;;;;;;13.10;7.82;;;16.20;85.80;;;;;;5035572;28;20084;-55
2022/04/15 19:51:52;;;;;;;13.73;9.45;;;16.10;87.20;;;;;;5053007;28;20052;-53
2022/04/15 19:54:19;;;;;;;12.25;8.52;;;16.00;88.10;;;;;;5035268;28;20040;-54
2022/04/15 20:02:36;;;;;;;14.65;9.00;;;15.80;90.00;;;;;;5053044;28;20304;-58
2022/04/15 20:05:04;;;;;;;15.05;9.90;;;15.70;90.20;;;;;;5053391;28;20083;-55
2022/04/15 20:07:31;;;;;;;16.80;11.20;;;15.60;90.60;;;;;;5053500;28;20128;-56
2022/04/15 20:09:58;;;;;;;20.20;11.60;;;15.50;90.90;;;;;;5019217;28;20449;-54
2022/04/15 20:12:25;;;;;;;18.20;13.02;;;15.40;91.10;;;;;;5054513;28;20094;-51
2022/04/15 20:14:52;;;;;;;21.05;12.75;;;15.40;91.40;;;;;;5053204;28;20114;-51
2022/04/15 20:17:19;;;;;;;19.58;13.15;;;15.30;91.40;;;;;;5035618;28;20040;-57
2022/04/15 20:19:46;;;;;;;20.17;14.63;;;15.30;91.40;;;;;;5053159;28;20411;-55
2022/04/15 20:22:12;;;;;;;25.08;14.35;;;15.30;91.40;;;;;;5052992;28;20052;-57
2022/04/15 20:24:42;;;;;;;20.88;14.57;;;15.30;91.60;;;;;;5053157;28;20499;-58
2022/04/15 20:27:09;;;;;;;17.90;13.77;;;15.20;91.60;;;;;;5053032;28;20045;-57
2022/04/15 20:29:36;;;;;;;20.48;13.90;;;15.20;91.60;;;;;;5035116;28;20110;-57
2022/04/15 20:32:03;;;;;;;18.63;12.45;;;15.20;91.80;;;;;;5052879;28;20037;-55
2022/04/15 20:34:29;;;;;;;20.08;12.75;;;15.10;91.90;;;;;;5034966;28;20575;-52
2022/04/15 20:36:56;;;;;;;20.02;14.02;;;15.00;91.90;;;;;;5052892;28;20045;-55
2022/04/15 20:39:29;;;;;;;18.08;12.85;;;15.00;92.20;;;;;;5052934;28;20526;-55
2022/04/15 20:41:55;;;;;;;18.40;13.40;;;14.90;92.30;;;;;;5056328;28;20075;-55
2022/04/15 20:44:23;;;;;;;18.23;13.80;;;14.90;92.40;;;;;;5052801;28;20474;-55
2022/04/15 20:46:50;;;;;;;16.58;12.50;;;14.80;92.50;;;;;;5052946;28;20127;-57
2022/04/15 20:52:04;;;;;;;17.73;11.48;;;14.70;92.60;;;;;;5052544;28;20487;-56
2022/04/15 20:54:31;;;;;;;17.83;11.25;;;14.70;92.70;;;;;;5052819;28;20041;-54
2022/04/15 20:57:18;;;;;;;19.90;10.15;;;14.60;92.70;;;;;;5052630;28;20053;-55
2022/04/15 20:59:45;;;;;;;12.70;7.88;;;14.60;92.90;;;;;;5052633;28;20099;-56
2022/04/15 21:02:11;;;;;;;8.95;6.53;;;14.50;92.90;;;;;;5052775;28;20045;-54
2022/04/15 21:04:38;;;;;;;8.10;5.28;;;14.50;92.80;;;;;;5052632;28;20124;-56
2022/04/15 21:07:06;;;;;;;8.70;4.53;;;14.50;92.80;;;;;;5052711;28;20450;-55
2022/04/15 21:09:34;;;;;;;8.35;4.10;;;14.50;92.70;;;;;;5034698;28;20045;-58
2022/04/15 21:12:07;;;;;;;7.90;4.70;;;14.50;92.80;;;;;;5055129;28;20047;-55
2022/04/15 21:14:34;;;;;;;8.88;4.85;;;14.50;92.80;;;;;;5052861;28;20044;-55
2022/04/15 21:17:02;;;;;;;10.20;4.28;;;14.40;92.90;;;;;;5052510;28;20504;-56
2022/04/15 21:19:29;;;;;;;8.93;4.70;;;14.40;92.80;;;;;;5052517;28;20048;-53
2022/04/15 21:21:56;;;;;;;9.90;5.28;;;14.40;92.80;;;;;;5034606;28;20045;-55
2022/04/15 21:24:24;;;;;;;8.20;5.03;;;14.40;92.80;;;;;;5052536;28;20483;-53
2022/04/15 21:26:51;;;;;;;8.80;5.63;;;14.40;92.80;;;;;;5052527;28;20075;-56
2022/04/15 21:29:17;;;;;;;7.97;6.50;;;14.30;92.90;;;;;;5052494;28;20045;-55
2022/04/15 21:31:44;;;;;;;12.45;7.53;;;14.20;92.90;;;;;;5052276;28;20040;-54
2022/04/15 21:34:12;;;;;;;15.07;9.35;;;14.20;92.70;;;;;;5052485;28;20037;-57
2022/04/15 21:36:38;;;;;;;11.80;8.90;;;14.10;92.60;;;;;;5052456;28;20068;-52
2022/04/15 21:39:05;;;;;;;12.48;9.45;;;14.10;92.50;;;;;;5052289;28;20071;-55
2022/04/15 21:41:33;;;;;;;17.30;10.00;;;14.10;92.60;;;;;;5056751;28;20045;-58
2022/04/15 21:44:00;;;;;;;14.20;10.32;;;14.10;92.70;;;;;;5052225;28;20044;-54
2022/04/15 21:46:28;;;;;;;12.43;10.23;;;14.00;92.80;;;;;;5054846;28;20049;-51
2022/04/15 21:48:55;;;;;;;15.23;11.02;;;14.00;92.70;;;;;;5055941;28;20052;-57